EZY34T EGPF-LEBL
Flight info
| Callsign | EZY34T |
|---|---|
| Flight time | N/A |
| Altitude | 35000 |
| Route | NORBO T256 RIPNO DCT AKOMU DCT VAMEB UL612 HON UN859 SOPIL DCT BALAN DCT EVPOK DCT NARAK DCT GAI DCT LOMRA DCT ROCAN DCT PUMAL |
| Aircraft | A20N/M-SDE2E3FGHIRWXY/LB1 |
Departure
| Time | N/A |
|---|---|
| Airport | Glasgow Airport (EGPF) |
Arrival
| Time | 2026-04-27 23:55 |
|---|---|
| Airport | Josep Tarradellas Barcelona-El Prat Airport (LEBL) |
| Time | Latitude | Longitude | Altitude | Speed | Heading |
|---|---|---|---|---|---|
| 2026-04-27 22:27 | 51.62834 | -1.28862 | 35293 ft | 489 kts | 164° |
| 2026-04-27 22:27 | 51.59580 | -1.27218 | 35290 ft | 488 kts | 164° |
| 2026-04-27 22:28 | 51.53091 | -1.23949 | 35287 ft | 488 kts | 165° |
| 2026-04-27 22:28 | 51.48482 | -1.21492 | 35287 ft | 488 kts | 160° |
| 2026-04-27 22:29 | 51.42242 | -1.16920 | 35280 ft | 489 kts | 157° |
| 2026-04-27 22:29 | 51.36222 | -1.11992 | 35262 ft | 489 kts | 152° |
| 2026-04-27 22:30 | 51.31274 | -1.07440 | 35264 ft | 490 kts | 152° |
| 2026-04-27 22:30 | 51.25367 | -1.02024 | 35264 ft | 489 kts | 152° |
| 2026-04-27 22:31 | 51.19463 | -0.96654 | 35264 ft | 489 kts | 152° |
| 2026-04-27 22:31 | 51.13551 | -0.91299 | 35263 ft | 488 kts | 152° |
| 2026-04-27 22:32 | 51.07634 | -0.85954 | 35256 ft | 488 kts | 153° |
| 2026-04-27 22:32 | 51.01725 | -0.80634 | 35248 ft | 487 kts | 153° |
| 2026-04-27 22:33 | 50.95817 | -0.75332 | 35241 ft | 487 kts | 153° |
| 2026-04-27 22:33 | 50.89909 | -0.70043 | 35235 ft | 487 kts | 153° |
| 2026-04-27 22:34 | 50.84042 | -0.64809 | 35233 ft | 487 kts | 153° |
| 2026-04-27 22:34 | 50.78131 | -0.59548 | 35226 ft | 486 kts | 153° |
| 2026-04-27 22:35 | 50.72229 | -0.54311 | 35226 ft | 486 kts | 153° |
| 2026-04-27 22:35 | 50.66342 | -0.49102 | 35226 ft | 484 kts | 153° |
| 2026-04-27 22:36 | 50.60454 | -0.43908 | 35229 ft | 484 kts | 153° |
| 2026-04-27 22:36 | 50.54587 | -0.38746 | 35230 ft | 483 kts | 154° |
| 2026-04-27 22:37 | 50.48715 | -0.33597 | 35229 ft | 483 kts | 154° |
| 2026-04-27 22:37 | 50.42834 | -0.28452 | 35229 ft | 482 kts | 154° |
| 2026-04-27 22:38 | 50.36977 | -0.23344 | 35233 ft | 481 kts | 154° |
| 2026-04-27 22:38 | 50.31129 | -0.18259 | 35228 ft | 480 kts | 154° |
| 2026-04-27 22:39 | 50.25275 | -0.13183 | 35227 ft | 480 kts | 154° |
| 2026-04-27 22:39 | 50.19426 | -0.08125 | 35226 ft | 479 kts | 154° |
| 2026-04-27 22:40 | 50.13587 | -0.03093 | 35225 ft | 487 kts | 154° |
| 2026-04-27 22:40 | 50.07350 | 0.01046 | 35220 ft | 481 kts | 166° |
| 2026-04-27 22:40 | 50.04168 | 0.02349 | 35223 ft | 469 kts | 169° |
| 2026-04-27 22:41 | 50.00983 | 0.03575 | 35223 ft | 471 kts | 169° |
| 2026-04-27 22:41 | 49.94619 | 0.06056 | 35217 ft | 471 kts | 169° |
| 2026-04-27 22:42 | 49.88261 | 0.08551 | 35213 ft | 471 kts | 169° |
| 2026-04-27 22:42 | 49.81900 | 0.11042 | 35215 ft | 471 kts | 169° |
| 2026-04-27 22:43 | 49.75535 | 0.13527 | 35210 ft | 471 kts | 169° |
| 2026-04-27 22:43 | 49.69172 | 0.16005 | 35210 ft | 471 kts | 169° |
| 2026-04-27 22:44 | 49.62869 | 0.18509 | 35214 ft | 471 kts | 168° |
| 2026-04-27 22:44 | 49.56500 | 0.21093 | 35207 ft | 471 kts | 168° |
| 2026-04-27 22:45 | 49.50152 | 0.23650 | 35207 ft | 472 kts | 169° |
| 2026-04-27 22:45 | 49.43789 | 0.26199 | 35205 ft | 472 kts | 169° |
| 2026-04-27 22:46 | 49.37463 | 0.28725 | 35209 ft | 472 kts | 169° |
| 2026-04-27 22:46 | 49.31051 | 0.31279 | 35208 ft | 473 kts | 169° |
| 2026-04-27 22:47 | 49.24703 | 0.33920 | 35207 ft | 473 kts | 168° |
| 2026-04-27 22:47 | 49.18355 | 0.36624 | 35200 ft | 473 kts | 168° |
| 2026-04-27 22:48 | 49.12007 | 0.39300 | 35193 ft | 473 kts | 168° |
| 2026-04-27 22:48 | 49.05658 | 0.41961 | 35187 ft | 473 kts | 168° |
| 2026-04-27 22:49 | 48.99310 | 0.44612 | 35185 ft | 473 kts | 168° |
| 2026-04-27 22:49 | 48.92966 | 0.47256 | 35181 ft | 473 kts | 168° |
| 2026-04-27 22:50 | 48.86620 | 0.49893 | 35182 ft | 473 kts | 168° |
| 2026-04-27 22:50 | 48.80271 | 0.52524 | 35178 ft | 473 kts | 168° |
| 2026-04-27 22:51 | 48.73909 | 0.55087 | 35174 ft | 472 kts | 169° |
| 2026-04-27 22:51 | 48.67536 | 0.57560 | 35174 ft | 472 kts | 169° |
| 2026-04-27 22:52 | 48.61151 | 0.60045 | 35168 ft | 473 kts | 168° |
| 2026-04-27 22:52 | 48.54781 | 0.62528 | 35165 ft | 473 kts | 168° |
| 2026-04-27 22:53 | 48.48401 | 0.65047 | 35153 ft | 473 kts | 168° |
| 2026-04-27 22:53 | 48.42040 | 0.67653 | 35146 ft | 473 kts | 168° |
| 2026-04-27 22:54 | 48.35708 | 0.70236 | 35155 ft | 473 kts | 168° |
| 2026-04-27 22:54 | 48.29345 | 0.72812 | 35148 ft | 474 kts | 168° |
| 2026-04-27 22:55 | 48.22967 | 0.75379 | 35143 ft | 474 kts | 168° |
| 2026-04-27 22:55 | 48.16578 | 0.77890 | 35141 ft | 474 kts | 168° |
| 2026-04-27 22:56 | 48.10201 | 0.80388 | 35139 ft | 474 kts | 168° |
| 2026-04-27 22:56 | 48.03820 | 0.82886 | 35138 ft | 474 kts | 168° |
| 2026-04-27 22:57 | 47.97468 | 0.85369 | 35131 ft | 474 kts | 168° |
| 2026-04-27 22:57 | 47.91081 | 0.87858 | 35125 ft | 474 kts | 168° |
| 2026-04-27 22:58 | 47.84693 | 0.90343 | 35125 ft | 475 kts | 168° |
| 2026-04-27 22:58 | 47.78297 | 0.92823 | 35118 ft | 475 kts | 168° |
| 2026-04-27 22:59 | 47.71900 | 0.95298 | 35118 ft | 475 kts | 168° |
| 2026-04-27 22:59 | 47.65513 | 0.97762 | 35113 ft | 475 kts | 168° |
| 2026-04-27 23:00 | 47.55921 | 1.01454 | 35091 ft | 475 kts | 168° |
| 2026-04-27 23:00 | 47.49520 | 1.03907 | 35114 ft | 475 kts | 168° |
| 2026-04-27 23:01 | 47.43084 | 1.06029 | 35113 ft | 472 kts | 175° |
| 2026-04-27 23:01 | 47.36541 | 1.06332 | 35109 ft | 469 kts | 184° |
| 2026-04-27 23:02 | 47.30005 | 1.06142 | 35110 ft | 470 kts | 184° |
| 2026-04-27 23:02 | 47.23508 | 1.05984 | 35109 ft | 469 kts | 184° |
| 2026-04-27 23:03 | 47.16972 | 1.05833 | 35108 ft | 470 kts | 184° |
| 2026-04-27 23:03 | 47.10435 | 1.05682 | 35106 ft | 470 kts | 184° |
| 2026-04-27 23:04 | 47.03896 | 1.05530 | 35110 ft | 470 kts | 184° |
| 2026-04-27 23:04 | 46.98446 | 1.05361 | 35109 ft | 470 kts | 185° |
| 2026-04-27 23:05 | 46.91911 | 1.05059 | 35115 ft | 470 kts | 185° |
| 2026-04-27 23:05 | 46.85377 | 1.04766 | 35110 ft | 470 kts | 185° |
| 2026-04-27 23:06 | 46.78841 | 1.04486 | 35114 ft | 470 kts | 185° |
| 2026-04-27 23:06 | 46.72297 | 1.04208 | 35106 ft | 470 kts | 185° |
| 2026-04-27 23:07 | 46.65758 | 1.03931 | 35111 ft | 470 kts | 185° |
| 2026-04-27 23:07 | 46.59269 | 1.03657 | 35103 ft | 469 kts | 185° |
| 2026-04-27 23:08 | 46.52728 | 1.03539 | 35108 ft | 471 kts | 179° |
| 2026-04-27 23:08 | 46.46220 | 1.05092 | 35099 ft | 476 kts | 169° |
| 2026-04-27 23:09 | 46.39766 | 1.07292 | 35104 ft | 476 kts | 169° |
| 2026-04-27 23:09 | 46.33352 | 1.09442 | 35098 ft | 476 kts | 169° |
| 2026-04-27 23:10 | 46.26907 | 1.11586 | 35104 ft | 476 kts | 169° |
| 2026-04-27 23:10 | 46.20435 | 1.13733 | 35099 ft | 476 kts | 169° |
| 2026-04-27 23:11 | 46.13980 | 1.15871 | 35099 ft | 476 kts | 169° |
| 2026-04-27 23:11 | 46.07518 | 1.18006 | 35097 ft | 476 kts | 169° |
| 2026-04-27 23:12 | 46.01064 | 1.20133 | 35102 ft | 476 kts | 169° |
| 2026-04-27 23:12 | 45.94609 | 1.22256 | 35099 ft | 476 kts | 169° |
| 2026-04-27 23:13 | 45.88151 | 1.24374 | 35104 ft | 476 kts | 169° |
| 2026-04-27 23:13 | 45.81700 | 1.26485 | 35103 ft | 475 kts | 169° |
| 2026-04-27 23:14 | 45.75246 | 1.28593 | 35102 ft | 476 kts | 169° |
| 2026-04-27 23:14 | 45.68820 | 1.30686 | 35093 ft | 476 kts | 169° |
| 2026-04-27 23:15 | 45.62352 | 1.32788 | 35089 ft | 476 kts | 169° |
| 2026-04-27 23:15 | 45.55889 | 1.34883 | 35079 ft | 476 kts | 169° |
| 2026-04-27 23:16 | 45.49412 | 1.36978 | 35079 ft | 477 kts | 169° |
| 2026-04-27 23:16 | 45.42931 | 1.39069 | 35070 ft | 478 kts | 169° |
| 2026-04-27 23:17 | 45.36443 | 1.41157 | 35070 ft | 478 kts | 169° |
| 2026-04-27 23:17 | 45.29957 | 1.43241 | 35070 ft | 478 kts | 169° |
| 2026-04-27 23:18 | 45.23465 | 1.45321 | 35072 ft | 478 kts | 169° |
| 2026-04-27 23:18 | 45.16968 | 1.47398 | 35072 ft | 478 kts | 169° |
| 2026-04-27 23:19 | 45.10516 | 1.49456 | 35078 ft | 478 kts | 169° |
| 2026-04-27 23:19 | 45.04016 | 1.51524 | 35073 ft | 478 kts | 169° |
| 2026-04-27 23:20 | 44.97529 | 1.53590 | 35130 ft | 474 kts | 171° |
| 2026-04-27 23:20 | 44.91159 | 1.55611 | 35071 ft | 469 kts | 171° |
| 2026-04-27 23:21 | 44.84800 | 1.57612 | 35068 ft | 469 kts | 171° |
| 2026-04-27 23:21 | 44.78428 | 1.59619 | 35064 ft | 469 kts | 171° |
| 2026-04-27 23:22 | 44.72057 | 1.61623 | 35062 ft | 469 kts | 171° |
| 2026-04-27 23:22 | 44.65678 | 1.63625 | 35060 ft | 470 kts | 171° |
| 2026-04-27 23:23 | 44.59289 | 1.65626 | 35061 ft | 470 kts | 171° |
| 2026-04-27 23:23 | 44.52903 | 1.67622 | 35059 ft | 470 kts | 171° |
| 2026-04-27 23:24 | 44.46507 | 1.69616 | 35064 ft | 470 kts | 171° |
| 2026-04-27 23:24 | 44.40142 | 1.71596 | 35069 ft | 471 kts | 171° |
| 2026-04-27 23:25 | 44.33734 | 1.73584 | 35061 ft | 471 kts | 171° |
| 2026-04-27 23:25 | 44.27302 | 1.75393 | 35061 ft | 470 kts | 174° |
| 2026-04-27 23:26 | 44.20832 | 1.76814 | 35070 ft | 470 kts | 174° |
| 2026-04-27 23:26 | 44.14402 | 1.78234 | 35064 ft | 470 kts | 174° |
| 2026-04-27 23:27 | 44.07902 | 1.79668 | 35067 ft | 470 kts | 174° |
| 2026-04-27 23:27 | 44.01483 | 1.81081 | 35067 ft | 470 kts | 174° |
| 2026-04-27 23:28 | 43.94983 | 1.82451 | 35068 ft | 468 kts | 178° |
| 2026-04-27 23:28 | 43.88503 | 1.83097 | 35072 ft | 466 kts | 179° |
| 2026-04-27 23:29 | 43.82025 | 1.83718 | 35069 ft | 467 kts | 179° |
| 2026-04-27 23:29 | 43.75544 | 1.84346 | 35069 ft | 466 kts | 179° |
| 2026-04-27 23:30 | 43.69068 | 1.84973 | 35072 ft | 466 kts | 179° |
| 2026-04-27 23:30 | 43.62588 | 1.85599 | 35077 ft | 467 kts | 179° |
| 2026-04-27 23:31 | 43.56102 | 1.86224 | 35078 ft | 467 kts | 179° |
| 2026-04-27 23:31 | 43.49619 | 1.86848 | 35081 ft | 467 kts | 179° |
| 2026-04-27 23:32 | 43.43202 | 1.87464 | 35075 ft | 468 kts | 179° |
| 2026-04-27 23:32 | 43.36708 | 1.88085 | 35076 ft | 469 kts | 179° |
| 2026-04-27 23:33 | 43.30199 | 1.88708 | 35076 ft | 469 kts | 179° |
| 2026-04-27 23:33 | 43.23684 | 1.89332 | 35075 ft | 469 kts | 179° |
| 2026-04-27 23:34 | 43.17163 | 1.89955 | 35077 ft | 470 kts | 179° |
| 2026-04-27 23:34 | 43.10631 | 1.90577 | 35085 ft | 470 kts | 179° |
| 2026-04-27 23:35 | 43.04108 | 1.91196 | 35087 ft | 470 kts | 179° |
| 2026-04-27 23:35 | 42.97576 | 1.91815 | 35087 ft | 470 kts | 179° |
| 2026-04-27 23:36 | 42.91084 | 1.92430 | 35089 ft | 471 kts | 179° |
| 2026-04-27 23:36 | 42.84544 | 1.93048 | 35101 ft | 471 kts | 179° |
| 2026-04-27 23:37 | 42.78004 | 1.93664 | 35104 ft | 471 kts | 179° |
| 2026-04-27 23:37 | 42.71456 | 1.94279 | 35112 ft | 471 kts | 179° |
| 2026-04-27 23:38 | 42.64925 | 1.95133 | 35119 ft | 473 kts | 174° |
| 2026-04-27 23:38 | 42.58418 | 1.96465 | 35116 ft | 472 kts | 174° |
| 2026-04-27 23:39 | 42.51919 | 1.97781 | 35118 ft | 472 kts | 174° |
| 2026-04-27 23:39 | 42.45455 | 1.99083 | 35118 ft | 472 kts | 174° |
| 2026-04-27 23:40 | 42.38979 | 2.00621 | 35119 ft | 474 kts | 167° |
| 2026-04-27 23:40 | 42.32889 | 2.04124 | 35115 ft | 479 kts | 151° |
| 2026-04-27 23:41 | 42.30092 | 2.06552 | 34926 ft | 477 kts | 149° |
| 2026-04-27 23:41 | 42.27316 | 2.08992 | 34402 ft | 475 kts | 149° |
| 2026-04-27 23:41 | 42.24540 | 2.11420 | 33619 ft | 474 kts | 149° |
| 2026-04-27 23:41 | 42.21766 | 2.13835 | 32637 ft | 475 kts | 149° |
| 2026-04-27 23:42 | 42.18979 | 2.16253 | 31608 ft | 477 kts | 149° |
| 2026-04-27 23:42 | 42.16179 | 2.18678 | 30648 ft | 479 kts | 149° |
| 2026-04-27 23:42 | 42.13391 | 2.21091 | 30032 ft | 473 kts | 148° |
| 2026-04-27 23:42 | 42.10637 | 2.23474 | 29455 ft | 466 kts | 149° |
| 2026-04-27 23:43 | 42.07960 | 2.25790 | 29261 ft | 451 kts | 149° |
| 2026-04-27 23:43 | 42.05358 | 2.28038 | 29013 ft | 438 kts | 149° |
| 2026-04-27 23:43 | 42.02819 | 2.30228 | 28521 ft | 432 kts | 149° |
| 2026-04-27 23:43 | 42.01140 | 2.31675 | 28118 ft | 429 kts | 149° |
| 2026-04-27 23:44 | 41.98656 | 2.33814 | 27890 ft | 417 kts | 149° |
| 2026-04-27 23:44 | 41.96248 | 2.35888 | 27749 ft | 404 kts | 149° |
| 2026-04-27 23:44 | 41.93921 | 2.37889 | 27607 ft | 390 kts | 149° |
| 2026-04-27 23:44 | 41.91661 | 2.39830 | 27286 ft | 383 kts | 149° |
| 2026-04-27 23:45 | 41.89413 | 2.41758 | 26698 ft | 384 kts | 149° |
| 2026-04-27 23:45 | 41.86409 | 2.44329 | 25713 ft | 391 kts | 149° |
| 2026-04-27 23:45 | 41.84850 | 2.45663 | 25246 ft | 394 kts | 149° |
| 2026-04-27 23:45 | 41.82536 | 2.47643 | 24641 ft | 395 kts | 149° |
| 2026-04-27 23:46 | 41.80200 | 2.49639 | 23786 ft | 403 kts | 149° |
| 2026-04-27 23:46 | 41.77810 | 2.51699 | 22727 ft | 413 kts | 149° |
| 2026-04-27 23:46 | 41.75370 | 2.53806 | 21668 ft | 420 kts | 149° |
| 2026-04-27 23:46 | 41.72887 | 2.55945 | 20664 ft | 427 kts | 149° |
| 2026-04-27 23:47 | 41.70406 | 2.58073 | 19701 ft | 431 kts | 149° |
| 2026-04-27 23:47 | 41.67863 | 2.60248 | 18760 ft | 435 kts | 149° |
| 2026-04-27 23:47 | 41.65308 | 2.62424 | 17736 ft | 435 kts | 149° |
| 2026-04-27 23:47 | 41.62767 | 2.64577 | 16701 ft | 427 kts | 149° |
| 2026-04-27 23:48 | 41.60300 | 2.66649 | 16073 ft | 407 kts | 149° |
| 2026-04-27 23:48 | 41.57891 | 2.68472 | 15421 ft | 391 kts | 159° |
| 2026-04-27 23:48 | 41.55284 | 2.69359 | 14550 ft | 384 kts | 176° |
| 2026-04-27 23:48 | 41.52641 | 2.69116 | 13574 ft | 380 kts | 195° |
| 2026-04-27 23:49 | 41.50248 | 2.67777 | 12550 ft | 376 kts | 213° |
| 2026-04-27 23:49 | 41.48316 | 2.65460 | 11546 ft | 373 kts | 233° |
| 2026-04-27 23:49 | 41.47032 | 2.62498 | 10730 ft | 366 kts | 245° |
| 2026-04-27 23:49 | 41.46054 | 2.59438 | 10353 ft | 348 kts | 249° |
| 2026-04-27 23:50 | 41.45199 | 2.56508 | 10004 ft | 332 kts | 249° |
| 2026-04-27 23:50 | 41.44381 | 2.53657 | 9274 ft | 328 kts | 249° |
| 2026-04-27 23:50 | 41.43554 | 2.50800 | 8297 ft | 333 kts | 249° |
| 2026-04-27 23:50 | 41.42705 | 2.47907 | 7311 ft | 337 kts | 249° |
| 2026-04-27 23:51 | 41.41925 | 2.44940 | 6341 ft | 340 kts | 251° |
| 2026-04-27 23:51 | 41.41083 | 2.41983 | 5346 ft | 342 kts | 248° |
| 2026-04-27 23:51 | 41.40163 | 2.39042 | 4346 ft | 345 kts | 247° |
| 2026-04-27 23:51 | 41.39245 | 2.36118 | 3378 ft | 345 kts | 247° |
| 2026-04-27 23:52 | 41.38337 | 2.33179 | 2596 ft | 338 kts | 248° |
| 2026-04-27 23:52 | 41.37457 | 2.30367 | 2223 ft | 318 kts | 246° |
| 2026-04-27 23:52 | 41.36571 | 2.27778 | 2050 ft | 295 kts | 245° |
| 2026-04-27 23:52 | 41.35738 | 2.25405 | 1992 ft | 271 kts | 245° |
| 2026-04-27 23:53 | 41.34988 | 2.23259 | 1990 ft | 237 kts | 245° |
| 2026-04-27 23:53 | 41.34350 | 2.21419 | 1978 ft | 215 kts | 245° |
| 2026-04-27 23:53 | 41.33729 | 2.19619 | 1723 ft | 212 kts | 245° |
| 2026-04-27 23:53 | 41.33121 | 2.17835 | 1228 ft | 211 kts | 246° |
| 2026-04-27 23:54 | 41.32516 | 2.16052 | 1007 ft | 213 kts | 246° |
| 2026-04-27 23:54 | 41.31908 | 2.14273 | 714 ft | 212 kts | 246° |
| 2026-04-27 23:54 | 41.31325 | 2.12574 | 480 ft | 193 kts | 246° |
| 2026-04-27 23:54 | 41.30791 | 2.11011 | 205 ft | 170 kts | 246° |
| 2026-04-27 23:55 | 41.30332 | 2.09673 | 24 ft | 147 kts | 245° |
| 2026-04-27 23:55 | 41.29978 | 2.08634 | 25 ft | 85 kts | 245° |
| 2026-04-27 23:55 | 41.29810 | 2.08140 | 19 ft | 42 kts | 245° |
| 2026-04-27 23:55 | 41.29777 | 2.07962 | 17 ft | 18 kts | 275° |
| 2026-04-27 23:56 | 41.29750 | 2.07773 | 15 ft | 22 kts | 280° |
| 2026-04-27 23:56 | 41.29797 | 2.07603 | 13 ft | 15 kts | 343° |
| 2026-04-27 23:56 | 41.29812 | 2.07604 | 14 ft | 0 kts | 8° |
| 2026-04-27 23:57 | 41.29843 | 2.07611 | 15 ft | 20 kts | 17° |
| 2026-04-27 23:57 | 41.29926 | 2.07794 | 17 ft | 24 kts | 69° |
| 2026-04-27 23:57 | 41.30004 | 2.07970 | 17 ft | 20 kts | 58° |
| 2026-04-27 23:58 | 41.30059 | 2.08152 | 20 ft | 22 kts | 71° |
| 2026-04-27 23:58 | 41.30125 | 2.08339 | 19 ft | 23 kts | 65° |
| 2026-04-27 23:58 | 41.30193 | 2.08472 | 19 ft | 11 kts | 10° |
| 2026-04-27 23:58 | 41.30271 | 2.08561 | 19 ft | 18 kts | 66° |
| 2026-04-27 23:59 | 41.30340 | 2.08597 | 19 ft | 10 kts | 322° |
| 2026-04-27 23:59 | 41.30413 | 2.08539 | 20 ft | 14 kts | 331° |
| 2026-04-27 23:59 | 41.30454 | 2.08491 | 21 ft | 6 kts | 299° |
| 2026-04-27 23:59 | 41.30441 | 2.08430 | 22 ft | 0 kts | 249° |
| 2026-04-28 00:00 | 41.30437 | 2.08420 | 22 ft | 0 kts | 244° |